Mumford, Texas
Current Conditions -  °F | °C
As of 1:15 AM on Saturday 25 Oct 2014 (Local Time) from KLHB Reporting Station
Clear Clear  
Wind Chill: 60°   Ceiling: Unl
Heat Index: 60°   Visibility: 7mi
Dew Point: 57°   Wind: 0mph
Humidity: 89%   Direction: NA
Pressure: 30.14"   Gusts: NA
Location:  30.73°N, 96.57°W
Report Text: KLHB 250615Z AUTO 00000KT 7SM CLR 16/14 A3014 RMK AO2 T01580140
Loading
Personal Weather Stations






























Interactive Weather Map
Tropical Storm Tracking
New forecast layout! Learn more

10-Day Weather Forecast

Advertisements
Track Severe Weather on mobile